createdAt,value
2023-04-03T00:02:52.631Z,8.80
2023-04-03T00:10:58.183Z,9.18
2023-04-03T00:19:06.575Z,8.65
2023-04-03T00:27:12.415Z,9.75
2023-04-03T00:35:22.124Z,9.70
2023-04-03T00:43:28.981Z,10.65
2023-04-03T00:51:37.389Z,9.10
2023-04-03T00:59:45.955Z,9.15
2023-04-03T01:07:55.330Z,9.70
2023-04-03T01:16:01.354Z,10.15
2023-04-03T01:24:25.869Z,8.38
2023-04-03T01:32:34.095Z,7.22
2023-04-03T01:41:17.113Z,7.20
2023-04-03T01:50:15.274Z,7.18
2023-04-03T01:58:20.971Z,7.57
2023-04-03T02:06:30.870Z,7.70
2023-04-03T02:14:36.700Z,7.03
2023-04-03T02:22:44.804Z,7.20
2023-04-03T02:30:51.050Z,7.43
2023-04-03T02:38:59.606Z,7.82
2023-04-03T02:47:05.293Z,8.90
2023-04-03T02:55:18.772Z,9.98
2023-04-03T03:03:27.158Z,10.50
2023-04-03T03:11:35.774Z,10.02
2023-04-03T03:19:41.765Z,9.48
2023-04-03T03:27:50.018Z,10.90
2023-04-03T03:35:56.433Z,12.80
2023-04-03T03:44:04.476Z,10.45
2023-04-03T03:52:11.972Z,11.45
2023-04-03T04:00:20.837Z,10.90
2023-04-03T04:08:32.138Z,11.55
2023-04-03T04:16:40.557Z,11.90
2023-04-03T04:32:59.246Z,11.27
2023-04-03T04:41:06.029Z,9.75
2023-04-03T04:49:14.288Z,9.05
2023-04-03T04:57:19.765Z,6.35
2023-04-03T05:05:29.122Z,6.65
2023-04-03T05:13:35.082Z,6.90
2023-04-03T05:21:43.516Z,9.77
2023-04-03T05:29:52.702Z,10.35
2023-04-03T05:38:02.985Z,11.55
2023-04-03T05:46:15.401Z,10.20
2023-04-03T05:54:28.693Z,9.25
2023-04-03T06:02:49.520Z,9.25
2023-04-03T06:11:03.450Z,6.40
2023-04-03T06:19:09.300Z,6.18
2023-04-03T06:27:20.819Z,5.63
2023-04-03T06:35:26.606Z,6.03
2023-04-03T06:43:35.025Z,5.75
2023-04-03T06:51:40.917Z,6.18
2023-04-03T06:59:48.934Z,5.50
2023-04-03T07:07:54.414Z,5.22
2023-04-03T07:16:02.638Z,5.10
2023-04-03T07:24:10.120Z,5.40
2023-04-03T07:32:21.713Z,4.55
2023-04-03T07:40:27.200Z,4.88
2023-04-03T07:48:36.213Z,5.35
2023-04-03T07:56:41.628Z,4.32
2023-04-03T08:04:49.937Z,4.30
2023-04-03T08:12:55.796Z,4.15
2023-04-03T08:21:04.064Z,4.32
2023-04-03T08:29:09.536Z,4.78
2023-04-03T08:37:17.581Z,4.68
2023-04-03T08:45:29.415Z,4.57
2023-04-03T08:53:43.976Z,4.43
2023-04-03T09:01:50.132Z,4.65
2023-04-03T09:10:00.788Z,4.65
2023-04-03T09:18:10.742Z,4.50
2023-04-03T09:26:22.260Z,7.43
2023-04-03T09:34:31.004Z,5.35
2023-04-03T09:42:51.833Z,5.75
2023-04-03T09:51:05.632Z,5.68
2023-04-03T09:59:19.906Z,4.95
2023-04-03T10:07:38.345Z,4.70
2023-04-03T10:15:49.602Z,4.00
2023-04-03T10:24:03.615Z,4.18
2023-04-03T10:32:27.018Z,4.95
2023-04-03T10:40:38.986Z,4.03
2023-04-03T10:48:57.639Z,3.83
2023-04-03T10:57:12.404Z,5.05
2023-04-03T11:05:31.147Z,3.50
2023-04-03T11:13:41.973Z,4.30
2023-04-03T11:21:57.460Z,4.70
2023-04-03T11:30:04.462Z,4.72
2023-04-03T11:38:24.125Z,5.15
2023-04-03T11:46:58.281Z,5.35
2023-04-03T11:55:27.042Z,5.45
2023-04-03T12:04:05.184Z,4.97
2023-04-03T12:12:31.848Z,4.60
2023-04-03T12:20:59.599Z,4.43
2023-04-03T12:29:20.179Z,4.85
2023-04-03T12:37:43.665Z,3.35
2023-04-03T12:54:05.560Z,3.10
2023-04-03T13:02:25.519Z,6.68
2023-04-03T13:10:31.179Z,3.53
2023-04-03T13:18:41.300Z,4.05
2023-04-03T13:26:47.437Z,3.10
2023-04-03T13:34:55.794Z,3.35
2023-04-03T13:43:07.467Z,4.38
2023-04-03T13:51:27.322Z,4.88
2023-04-03T13:59:34.318Z,4.70
2023-04-03T14:07:42.338Z,5.32
2023-04-03T14:15:52.385Z,5.53
2023-04-03T14:24:01.129Z,6.32
2023-04-03T14:32:14.772Z,5.95
2023-04-03T14:40:26.539Z,6.45
2023-04-03T14:48:34.448Z,6.43
2023-04-03T14:56:42.602Z,7.80
2023-04-03T15:04:48.189Z,6.55
2023-04-03T15:12:57.125Z,5.45
2023-04-03T15:21:02.957Z,5.78
2023-04-03T15:29:11.230Z,5.50
2023-04-03T15:37:17.018Z,5.95
2023-04-03T15:45:25.683Z,5.88
2023-04-03T15:53:33.602Z,6.25
2023-04-03T16:01:43.607Z,6.10
2023-04-03T16:09:49.230Z,6.63
2023-04-03T16:17:58.310Z,7.13
2023-04-03T16:26:18.906Z,6.63
2023-04-03T16:34:24.550Z,7.90
2023-04-03T16:42:32.628Z,6.93
2023-04-03T16:50:38.135Z,6.82
2023-04-03T16:58:46.353Z,8.38
2023-04-03T17:06:52.808Z,6.32
2023-04-03T17:15:00.837Z,7.32
2023-04-03T17:23:06.348Z,5.40
2023-04-03T17:31:14.381Z,4.78
2023-04-03T17:39:19.871Z,5.45
2023-04-03T17:47:28.833Z,5.65
2023-04-03T17:55:34.486Z,5.72
2023-04-03T18:03:42.817Z,5.22
2023-04-03T18:11:49.232Z,5.00
2023-04-03T18:19:57.355Z,4.18
2023-04-03T18:28:06.630Z,6.10
2023-04-03T18:44:41.992Z,5.10
2023-04-03T18:52:51.018Z,4.80
2023-04-03T19:00:56.599Z,4.68
2023-04-03T19:09:06.781Z,5.15
2023-04-03T19:17:12.368Z,5.88
2023-04-03T19:25:20.735Z,5.07
2023-04-03T19:33:26.395Z,4.50
2023-04-03T19:41:36.886Z,4.30
2023-04-03T19:49:42.792Z,4.55
2023-04-03T19:57:51.046Z,4.38
2023-04-03T20:05:58.024Z,4.45
2023-04-03T20:14:09.269Z,4.88
2023-04-03T20:22:15.211Z,5.30
2023-04-03T20:30:23.410Z,4.82
2023-04-03T20:38:29.037Z,5.63
2023-04-03T20:46:51.371Z,4.05
2023-04-03T20:55:00.535Z,4.53
2023-04-03T21:03:08.790Z,4.57
2023-04-03T21:11:46.156Z,4.15
2023-04-03T21:19:54.625Z,4.80
2023-04-03T21:28:00.328Z,3.80
2023-04-03T21:36:09.425Z,3.78
2023-04-03T21:44:14.911Z,3.42
2023-04-03T21:52:23.191Z,3.25
2023-04-03T22:00:28.843Z,3.35
2023-04-03T22:08:37.055Z,3.10
2023-04-03T22:16:46.351Z,3.17
2023-04-03T22:24:55.840Z,3.45
2023-04-03T22:33:01.425Z,3.45
2023-04-03T22:41:10.873Z,3.25
2023-04-03T22:49:16.455Z,3.40
2023-04-03T22:57:24.575Z,4.18
2023-04-03T23:05:31.963Z,4.15
2023-04-03T23:13:40.218Z,3.72
2023-04-03T23:21:46.010Z,3.97
2023-04-03T23:29:54.140Z,3.78
2023-04-03T23:37:59.643Z,4.00
2023-04-03T23:46:08.013Z,4.05
2023-04-03T23:54:13.416Z,4.00
